Time;durP1;ratioP1;P1;durP2;ratioP2;P2;SDS_P1;SDS_P2;PMS_P1;PMS_P2;Temp;Humidity;BMP_temperature;BMP_pressure;BME280_temperature;BME280_humidity;BME280_pressure;Samples;Min_cycle;Max_cycle;Signal;HPM_P1;HPM_P2
2023/08/09 00:00:59;;;;;;;2.13;1.93;;;;;;;18.31;100.00;100115.63;4988747;28;20337;-76
2023/08/09 00:03:26;;;;;;;3.03;2.30;;;;;;;18.31;100.00;100113.00;4990660;28;20185;-75
2023/08/09 00:05:51;;;;;;;2.60;2.00;;;;;;;18.31;100.00;100110.38;4991439;28;20208;-78
2023/08/09 00:08:16;;;;;;;2.40;1.90;;;;;;;18.28;100.00;100106.97;4980591;28;20192;-78
2023/08/09 00:10:42;;;;;;;3.53;2.30;;;;;;;18.33;99.88;100113.78;4987759;28;20229;-76
2023/08/09 00:13:07;;;;;;;2.23;2.03;;;;;;;18.31;99.85;100107.75;4978188;28;20190;-76
2023/08/09 00:15:33;;;;;;;2.63;1.87;;;;;;;18.30;100.00;100106.91;5003772;28;20259;-78
2023/08/09 00:17:58;;;;;;;2.73;1.87;;;;;;;18.28;100.00;100103.50;4984055;28;20182;-77
2023/08/09 00:20:25;;;;;;;2.53;1.70;;;;;;;18.28;100.00;100095.66;4980911;28;20214;-77
2023/08/09 00:22:50;;;;;;;2.00;1.90;;;;;;;18.29;100.00;100099.97;4981179;28;20189;-77
2023/08/09 00:25:16;;;;;;;2.57;1.87;;;;;;;18.28;100.00;100099.09;4981486;28;20232;-76
2023/08/09 00:27:45;;;;;;;2.17;1.97;;;;;;;18.27;100.00;100097.41;4998473;28;20193;-78
2023/08/09 00:30:10;;;;;;;2.97;1.90;;;;;;;18.25;100.00;100094.00;4976600;28;20216;-80
2023/08/09 00:32:37;;;;;;;2.47;2.03;;;;;;;18.25;100.00;100088.75;4996313;28;20216;-79
2023/08/09 00:35:03;;;;;;;2.30;2.00;;;;;;;18.25;100.00;100090.53;4992988;28;20211;-76
2023/08/09 00:37:32;;;;;;;4.70;2.10;;;;;;;18.23;100.00;100087.97;4996629;28;20254;-77
2023/08/09 00:39:58;;;;;;;2.13;1.70;;;;;;;18.20;100.00;100085.50;4987054;28;20203;-78
2023/08/09 00:42:23;;;;;;;2.50;1.70;;;;;;;18.19;100.00;100082.94;4990944;28;20196;-76
2023/08/09 00:44:52;;;;;;;3.37;2.17;;;;;;;18.18;100.00;100092.59;4991911;28;20253;-76
2023/08/09 00:47:19;;;;;;;1.90;1.80;;;;;;;18.17;100.00;100090.88;4993434;28;20477;-76
2023/08/09 00:49:45;;;;;;;2.30;1.80;;;;;;;18.16;100.00;100083.06;4979669;28;20191;-76
2023/08/09 00:52:11;;;;;;;4.93;2.00;;;;;;;18.16;100.00;100085.69;4985661;28;20186;-76
2023/08/09 00:54:39;;;;;;;1.70;1.60;;;;;;;18.13;100.00;100076.22;4980886;28;20234;-76
2023/08/09 00:57:08;;;;;;;3.93;2.03;;;;;;;18.12;100.00;100079.75;4990216;28;20649;-76
2023/08/09 00:59:34;;;;;;;2.77;1.80;;;;;;;18.11;100.00;100076.28;4986041;28;20242;-79
2023/08/09 01:01:59;;;;;;;1.83;1.70;;;;;;;18.10;100.00;100071.09;4983499;28;20731;-76
2023/08/09 01:04:25;;;;;;;2.50;1.80;;;;;;;18.08;100.00;100068.56;5004193;28;20206;-77
2023/08/09 01:07:09;;;;;;;1.57;1.47;;;;;;;18.08;100.00;100068.56;4985425;28;20245;-77
2023/08/09 01:09:45;;;;;;;2.20;1.83;;;;;;;18.09;100.00;100069.41;4989299;28;20254;-76
2023/08/09 01:12:14;;;;;;;1.60;1.50;;;;;;;18.10;100.00;100065.88;4983734;28;20932;-78
2023/08/09 01:14:43;;;;;;;2.87;1.80;;;;;;;18.10;100.00;100071.09;4987171;28;20195;-76
2023/08/09 01:17:13;;;;;;;1.57;1.47;;;;;;;18.09;100.00;100078.13;4989319;28;20191;-78
2023/08/09 01:19:49;;;;;;;1.70;1.60;;;;;;;18.09;100.00;100069.41;4984776;28;20182;-76
2023/08/09 01:22:17;;;;;;;1.90;1.70;;;;;;;18.08;100.00;100065.94;4983383;28;20202;-76
2023/08/09 01:24:44;;;;;;;1.60;1.50;;;;;;;18.08;100.00;100068.56;4982211;28;20233;-76
2023/08/09 01:27:09;;;;;;;1.47;1.37;;;;;;;18.08;100.00;100068.56;4987000;28;20661;-77
2023/08/09 01:29:36;;;;;;;2.13;1.47;;;;;;;18.09;100.00;100075.50;4987526;28;20193;-77
2023/08/09 01:32:01;;;;;;;1.50;1.40;;;;;;;18.09;100.00;100082.50;4996541;28;20217;-79
2023/08/09 01:34:27;;;;;;;1.60;1.50;;;;;;;18.08;100.00;100084.28;4977649;28;20232;-78
2023/08/09 01:36:56;;;;;;;1.80;1.70;;;;;;;18.09;100.00;100087.72;4982588;28;20738;-76
2023/08/09 01:39:23;;;;;;;1.70;1.50;;;;;;;18.09;100.00;100096.44;4990336;28;20211;-78
2023/08/09 01:41:50;;;;;;;2.07;1.80;;;;;;;18.09;100.00;100085.13;4988086;28;20210;-76
2023/08/09 01:44:16;;;;;;;1.50;1.40;;;;;;;18.09;100.00;100099.06;4989641;28;20665;-77
2023/08/09 01:46:43;;;;;;;2.17;1.50;;;;;;;18.09;100.00;100095.59;4977248;28;20682;-78
2023/08/09 01:49:14;;;;;;;1.67;1.57;;;;;;;18.10;100.00;100103.41;4983728;28;20656;-76
2023/08/09 01:51:40;;;;;;;1.57;1.47;;;;;;;18.10;99.80;100099.91;4982530;28;20223;-77
2023/08/09 01:54:06;;;;;;;1.60;1.50;;;;;;;18.09;99.77;100101.69;4988230;28;20195;-77
2023/08/09 01:56:32;;;;;;;1.50;1.40;;;;;;;18.10;99.58;100099.91;4986768;28;20203;-78
2023/08/09 01:58:58;;;;;;;1.60;1.50;;;;;;;18.10;99.43;100100.78;5006664;28;20198;-78
2023/08/09 02:01:23;;;;;;;1.87;1.73;;;;;;;18.12;99.51;100098.06;4988310;28;20259;-77
2023/08/09 02:03:49;;;;;;;1.93;1.57;;;;;;;18.12;99.17;100092.84;4998935;28;20215;-78
2023/08/09 02:06:14;;;;;;;2.00;1.40;;;;;;;18.12;99.06;100100.69;4989218;28;20595;-77
2023/08/09 02:08:42;;;;;;;3.37;1.70;;;;;;;18.13;99.06;100103.28;4982999;28;20204;-78
2023/08/09 02:11:07;;;;;;;1.67;1.57;;;;;;;18.11;98.56;100105.09;4981678;28;20253;-79
2023/08/09 02:13:32;;;;;;;1.60;1.50;;;;;;;18.12;98.41;100106.81;4981139;28;20587;-79
2023/08/09 02:16:00;;;;;;;1.60;1.50;;;;;;;18.12;98.24;100093.72;4982477;28;20190;-78
2023/08/09 02:18:29;;;;;;;2.30;1.70;;;;;;;18.11;98.01;100078.91;4977958;28;21042;-77
2023/08/09 02:20:54;;;;;;;2.80;1.80;;;;;;;18.12;98.22;100084.97;4976592;28;20209;-78
2023/08/09 02:23:19;;;;;;;1.57;1.47;;;;;;;18.12;98.19;100079.75;4987263;28;20190;-78
2023/08/09 02:25:45;;;;;;;2.20;2.00;;;;;;;18.10;97.37;100073.72;4982734;28;20206;-77
2023/08/09 02:28:10;;;;;;;2.70;2.00;;;;;;;18.07;97.48;100079.94;4998764;28;20203;-77
2023/08/09 02:30:36;;;;;;;2.77;1.67;;;;;;;18.06;97.63;100075.63;4995686;28;20287;-80
2023/08/09 02:33:02;;;;;;;3.30;1.77;;;;;;;18.04;97.50;100092.34;4988913;28;20182;-80
2023/08/09 02:35:32;;;;;;;1.77;1.67;;;;;;;18.02;97.52;100083.69;4991278;28;20776;-78
2023/08/09 02:37:58;;;;;;;2.27;1.70;;;;;;;18.00;97.86;100080.28;4990797;28;20629;-78
2023/08/09 02:40:23;;;;;;;1.70;1.60;;;;;;;17.98;97.74;100080.38;5003321;28;20300;-78
2023/08/09 02:42:51;;;;;;;2.27;1.60;;;;;;;17.98;97.53;100085.59;4984664;28;20192;-77
2023/08/09 02:45:17;;;;;;;1.80;1.70;;;;;;;17.96;98.01;100085.63;4988376;28;20210;-78
2023/08/09 02:47:42;;;;;;;1.67;1.57;;;;;;;17.96;97.84;100077.75;4998879;28;20193;-78
2023/08/09 02:50:07;;;;;;;1.63;1.50;;;;;;;17.95;98.34;100085.69;4997142;28;20261;-77
2023/08/09 02:52:33;;;;;;;2.23;2.03;;;;;;;17.96;98.16;100084.78;4989286;28;20238;-77
2023/08/09 02:54:58;;;;;;;1.93;1.60;;;;;;;17.96;98.00;100083.00;4981111;28;20211;-78
2023/08/09 02:57:24;;;;;;;2.73;2.00;;;;;;;17.97;97.58;100078.63;4991503;28;20945;-79
2023/08/09 02:59:52;;;;;;;3.30;1.90;;;;;;;17.96;96.81;100066.47;4981133;28;20552;-77
2023/08/09 03:02:20;;;;;;;2.30;2.03;;;;;;;17.96;96.55;100075.16;4990274;28;20196;-77
2023/08/09 03:04:46;;;;;;;2.10;1.87;;;;;;;17.95;96.62;100064.75;4986254;28;20199;-77
2023/08/09 03:07:11;;;;;;;1.70;1.60;;;;;;;17.97;95.95;100066.41;4989156;28;20743;-77
2023/08/09 03:09:38;;;;;;;2.13;1.80;;;;;;;17.98;95.98;100067.28;4989357;28;20189;-78
2023/08/09 03:12:06;;;;;;;3.33;1.83;;;;;;;18.00;95.63;100064.56;4985408;28;20228;-78
2023/08/09 03:14:32;;;;;;;2.53;2.10;;;;;;;18.03;94.91;100064.44;4991467;28;20186;-78
2023/08/09 03:16:57;;;;;;;1.73;1.63;;;;;;;18.04;94.87;100067.00;4988208;28;20322;-77
2023/08/09 03:19:22;;;;;;;1.73;1.63;;;;;;;18.05;95.08;100073.94;4985899;28;20197;-77
2023/08/09 03:21:48;;;;;;;1.60;1.50;;;;;;;18.07;94.79;100069.47;4985641;28;20209;-78
2023/08/09 03:24:13;;;;;;;2.07;1.37;;;;;;;18.08;94.23;100067.69;4978751;28;20185;-77
2023/08/09 03:26:39;;;;;;;1.70;1.50;;;;;;;18.10;94.25;100068.47;4980925;28;20559;-77
2023/08/09 03:29:04;;;;;;;2.70;1.57;;;;;;;18.12;94.25;100072.75;4992104;28;20186;-79
2023/08/09 03:31:30;;;;;;;2.20;1.60;;;;;;;18.13;94.62;100071.84;4987504;28;20228;-77
2023/08/09 03:34:00;;;;;;;2.70;2.13;;;;;;;18.16;94.35;100078.69;4974996;28;20186;-78
2023/08/09 03:36:26;;;;;;;1.70;1.60;;;;;;;18.17;94.00;100092.63;4979080;28;20183;-75
2023/08/09 03:38:51;;;;;;;2.50;1.53;;;;;;;18.18;94.24;100089.97;4987331;28;20677;-76
2023/08/09 03:41:16;;;;;;;1.97;1.50;;;;;;;18.17;94.03;100098.75;5001629;28;20278;-77
2023/08/09 03:43:42;;;;;;;1.53;1.43;;;;;;;18.21;93.78;100096.81;4990017;28;20194;-76
2023/08/09 03:46:08;;;;;;;1.90;1.47;;;;;;;18.22;93.83;100107.25;4987683;28;20238;-77
2023/08/09 03:48:34;;;;;;;2.50;1.60;;;;;;;18.23;93.93;100095.84;4987869;28;20262;-76
2023/08/09 03:50:59;;;;;;;1.60;1.40;;;;;;;18.25;93.70;100095.78;4983912;28;20952;-77
2023/08/09 03:53:24;;;;;;;2.37;1.60;;;;;;;18.25;93.48;100103.66;4984295;28;20782;-76
2023/08/09 03:55:51;;;;;;;2.10;1.80;;;;;;;18.25;93.43;100103.66;4980324;28;20706;-78
2023/08/09 03:58:16;;;;;;;1.80;1.70;;;;;;;18.25;93.33;100101.84;4997183;28;20406;-78
2023/08/09 04:00:42;;;;;;;2.03;1.57;;;;;;;18.26;93.78;100105.34;4996476;28;20739;-78
2023/08/09 04:03:08;;;;;;;2.07;1.40;;;;;;;18.27;93.49;100110.50;5004182;28;20205;-77
2023/08/09 04:05:35;;;;;;;1.50;1.40;;;;;;;18.30;93.52;100111.28;4984136;28;20622;-77
2023/08/09 04:08:02;;;;;;;2.17;1.90;;;;;;;18.32;93.75;100106.84;4985121;28;20218;-78
2023/08/09 04:10:28;;;;;;;2.10;1.60;;;;;;;18.32;93.47;100106.84;4981653;28;20212;-78
2023/08/09 04:12:53;;;;;;;2.13;1.40;;;;;;;18.31;93.33;100116.44;4997517;28;20205;-79
2023/08/09 04:15:21;;;;;;;2.00;1.80;;;;;;;18.33;93.28;100113.78;4981586;28;20256;-77
2023/08/09 04:17:48;;;;;;;2.20;2.00;;;;;;;18.31;93.16;100108.59;4991757;28;20190;-77
2023/08/09 04:20:14;;;;;;;2.00;1.80;;;;;;;18.30;93.18;100112.16;4997585;28;20259;-78
2023/08/09 04:22:39;;;;;;;1.77;1.60;;;;;;;18.30;93.39;100113.91;4992624;28;20271;-77
2023/08/09 04:25:05;;;;;;;2.67;1.90;;;;;;;18.31;93.46;100110.38;4984181;28;20345;-77
2023/08/09 04:27:32;;;;;;;2.00;1.80;;;;;;;18.31;93.24;100116.44;4990005;28;20191;-79
2023/08/09 04:30:00;;;;;;;1.60;1.50;;;;;;;18.31;93.38;100102.53;4987710;28;20182;-81
2023/08/09 04:32:26;;;;;;;1.83;1.57;;;;;;;18.33;93.16;100098.06;4998037;28;20272;-80
2023/08/09 04:34:54;;;;;;;2.07;1.87;;;;;;;18.32;92.77;100098.97;4996537;28;20185;-78
2023/08/09 04:37:20;;;;;;;4.10;1.70;;;;;;;18.32;93.05;100097.19;4992498;28;20191;-77
2023/08/09 04:39:45;;;;;;;1.80;1.40;;;;;;;18.33;92.97;100109.38;4987135;28;20189;-78
2023/08/09 04:42:10;;;;;;;2.40;1.50;;;;;;;18.35;92.89;100117.19;4987895;28;20205;-77
2023/08/09 04:44:35;;;;;;;5.67;1.77;;;;;;;18.38;92.18;100117.03;4996088;28;20208;-78
2023/08/09 04:47:02;;;;;;;2.67;1.50;;;;;;;18.38;92.23;100122.28;4987769;28;20195;-78
2023/08/09 04:49:28;;;;;;;1.57;1.47;;;;;;;18.40;92.46;100120.44;4985777;28;20198;-77
2023/08/09 04:51:54;;;;;;;2.07;1.53;;;;;;;18.41;91.93;100123.00;5008538;28;20204;-76
2023/08/09 04:54:19;;;;;;;3.30;1.50;;;;;;;18.44;92.16;100122.00;4990836;28;20275;-76
2023/08/09 04:56:45;;;;;;;1.50;1.40;;;;;;;18.47;92.04;100121.00;5001474;28;20264;-78
2023/08/09 04:59:10;;;;;;;2.67;1.73;;;;;;;18.49;91.73;100117.44;4995800;28;20203;-76
2023/08/09 05:01:35;;;;;;;1.57;1.30;;;;;;;18.52;92.16;100113.81;4999556;28;20219;-77
2023/08/09 05:04:00;;;;;;;2.40;1.60;;;;;;;18.54;92.02;100112.81;4991124;28;20963;-76
2023/08/09 05:06:27;;;;;;;2.03;1.57;;;;;;;18.57;91.97;100119.69;4992823;28;20239;-77
2023/08/09 05:08:53;;;;;;;2.20;1.70;;;;;;;18.57;92.04;100117.91;4995895;28;20690;-76
2023/08/09 05:11:18;;;;;;;2.30;1.53;;;;;;;18.64;91.79;100117.66;4995402;28;20208;-78
2023/08/09 05:13:45;;;;;;;1.60;1.47;;;;;;;18.66;91.91;100127.13;4995368;28;20190;-77
2023/08/09 05:16:10;;;;;;;2.33;1.70;;;;;;;18.69;91.48;100134.00;4997664;28;20200;-78
2023/08/09 05:18:38;;;;;;;2.97;1.63;;;;;;;18.70;92.01;100119.97;4989003;28;20191;-77
2023/08/09 05:21:04;;;;;;;2.50;1.67;;;;;;;18.71;91.41;100121.69;4989118;28;20287;-77
2023/08/09 05:23:29;;;;;;;2.77;1.70;;;;;;;18.76;91.41;100116.22;4991942;28;20297;-78
2023/08/09 05:25:54;;;;;;;2.57;1.50;;;;;;;18.79;91.64;100121.31;4989099;28;20292;-77
2023/08/09 05:28:20;;;;;;;2.37;1.73;;;;;;;18.83;91.44;100120.28;4984840;28;20214;-77
2023/08/09 05:30:48;;;;;;;2.10;1.63;;;;;;;18.89;91.77;100123.47;5007295;28;20240;-77
2023/08/09 05:33:13;;;;;;;2.13;1.63;;;;;;;18.93;91.66;100123.31;4983187;28;20922;-78
2023/08/09 05:35:38;;;;;;;2.60;1.67;;;;;;;18.93;91.64;100128.56;4991343;28;20202;-78
2023/08/09 05:38:12;;;;;;;1.90;1.70;;;;;;;18.94;91.52;100144.25;4989597;28;20228;-76
2023/08/09 05:40:38;;;;;;;3.23;1.67;;;;;;;18.94;92.48;100140.75;4988641;28;20212;-78
2023/08/09 05:43:03;;;;;;;1.97;1.63;;;;;;;18.95;93.16;100139.88;4989402;28;20708;-79
2023/08/09 05:45:29;;;;;;;2.80;1.43;;;;;;;18.96;92.89;100131.94;4989726;28;20223;-79
2023/08/09 05:47:54;;;;;;;4.33;1.90;;;;;;;18.95;93.93;100139.88;5004971;28;20226;-78
2023/08/09 05:50:19;;;;;;;3.30;1.93;;;;;;;18.95;94.09;100145.97;5000211;28;20219;-78
2023/08/09 05:52:45;;;;;;;2.27;1.60;;;;;;;18.97;93.79;100151.97;5000176;28;20819;-78
2023/08/09 05:55:10;;;;;;;2.17;1.70;;;;;;;18.99;93.60;100157.16;4987986;28;20235;-77
2023/08/09 05:57:36;;;;;;;1.90;1.73;;;;;;;19.03;93.65;100156.09;4991515;28;20183;-78
2023/08/09 06:00:04;;;;;;;1.60;1.50;;;;;;;19.06;93.55;100161.19;4984025;28;20196;-77
2023/08/09 06:02:33;;;;;;;2.13;1.60;;;;;;;19.12;93.19;100160.06;4991260;28;20213;-77
2023/08/09 06:05:01;;;;;;;2.53;1.93;;;;;;;19.17;93.21;100163.31;4990883;28;20208;-77
2023/08/09 06:07:27;;;;;;;3.10;1.43;;;;;;;19.21;93.28;100154.38;4984241;28;20220;-77
2023/08/09 06:09:53;;;;;;;3.27;1.97;;;;;;;19.31;93.36;100167.91;4991259;28;20203;-77
2023/08/09 06:12:18;;;;;;;2.70;1.73;;;;;;;19.34;93.16;100163.38;4991079;28;20196;-78
2023/08/09 06:14:43;;;;;;;2.43;1.87;;;;;;;19.41;92.64;100158.69;5006457;28;20192;-77
2023/08/09 06:17:09;;;;;;;2.47;1.90;;;;;;;19.44;92.65;100166.41;4988059;28;20272;-77
2023/08/09 06:19:34;;;;;;;1.77;1.67;;;;;;;19.54;92.61;100171.22;4984842;28;20189;-75
2023/08/09 06:21:59;;;;;;;1.97;1.70;;;;;;;19.61;92.68;100177.84;4987807;28;20213;-76
2023/08/09 06:24:25;;;;;;;2.93;2.10;;;;;;;19.63;92.72;100181.25;4981788;28;20203;-76
2023/08/09 06:26:50;;;;;;;2.27;2.00;;;;;;;19.63;92.68;100178.63;4983734;28;21349;-76
2023/08/09 06:29:16;;;;;;;3.70;1.77;;;;;;;19.59;92.97;100180.56;4995431;28;20562;-77
2023/08/09 06:31:42;;;;;;;1.47;1.37;;;;;;;19.54;93.34;100187.81;5007619;28;20220;-79
2023/08/09 06:34:08;;;;;;;1.70;1.37;;;;;;;19.50;93.40;100191.53;5013194;28;20185;-78
2023/08/09 06:36:34;;;;;;;3.63;1.93;;;;;;;19.42;93.71;100186.63;4982380;28;20266;-78
2023/08/09 06:38:59;;;;;;;2.60;1.90;;;;;;;19.39;93.92;100186.78;4983465;28;20197;-77
2023/08/09 06:41:25;;;;;;;2.77;1.80;;;;;;;19.37;94.23;100190.38;4996358;28;20623;-77
2023/08/09 06:43:50;;;;;;;2.43;1.77;;;;;;;19.32;94.37;100204.59;4985366;28;20671;-78
2023/08/09 06:46:15;;;;;;;1.90;1.70;;;;;;;19.32;94.64;100198.47;5005218;28;20220;-76
2023/08/09 06:48:41;;;;;;;3.70;1.90;;;;;;;19.21;95.07;100191.09;4986066;28;20687;-78
2023/08/09 06:51:06;;;;;;;2.70;1.73;;;;;;;19.23;94.92;100196.28;4981257;28;20216;-79
2023/08/09 06:53:32;;;;;;;3.63;1.93;;;;;;;19.23;95.21;100193.66;4986005;28;20185;-77
2023/08/09 06:55:57;;;;;;;2.77;1.73;;;;;;;19.22;95.87;100199.84;4977312;28;20198;-77
2023/08/09 06:58:24;;;;;;;2.60;1.80;;;;;;;19.20;96.08;100199.91;4976238;28;20193;-76
2023/08/09 07:00:49;;;;;;;1.83;1.67;;;;;;;19.23;96.35;100207.63;4975455;28;20208;-77
2023/08/09 07:03:15;;;;;;;2.07;1.73;;;;;;;19.26;96.21;100202.25;4978093;28;20240;-76
2023/08/09 07:05:41;;;;;;;1.83;1.60;;;;;;;19.25;96.62;100208.41;4979963;28;20198;-77
2023/08/09 07:08:06;;;;;;;2.43;1.83;;;;;;;19.22;97.27;100207.69;4977298;28;20189;-78
2023/08/09 07:10:32;;;;;;;2.60;1.80;;;;;;;19.21;97.26;100213.88;4984029;28;20981;-78
2023/08/09 07:12:57;;;;;;;2.43;1.97;;;;;;;19.18;97.71;100218.34;4983820;28;20869;-78
2023/08/09 07:15:23;;;;;;;3.00;1.67;;;;;;;19.19;97.75;100222.66;4992691;28;20653;-78
2023/08/09 07:17:48;;;;;;;2.20;1.80;;;;;;;19.20;98.13;100226.16;4995900;28;20195;-78
2023/08/09 07:20:14;;;;;;;1.70;1.60;;;;;;;19.21;97.97;100232.22;4989491;28;20720;-78
2023/08/09 07:22:41;;;;;;;2.10;1.90;;;;;;;19.18;98.47;100235.84;4993566;28;20788;-79
2023/08/09 07:25:10;;;;;;;3.70;2.00;;;;;;;19.17;98.98;100235.00;4983637;28;20218;-77
2023/08/09 07:27:43;;;;;;;2.80;1.90;;;;;;;19.18;98.35;100238.47;4997822;28;20208;-77
2023/08/09 07:30:10;;;;;;;4.13;1.80;;;;;;;19.23;98.82;100231.22;4982340;28;20184;-77
2023/08/09 07:32:38;;;;;;;2.70;1.87;;;;;;;19.30;98.66;100235.28;4990331;28;20191;-78
2023/08/09 07:35:07;;;;;;;1.90;1.70;;;;;;;19.34;98.44;100233.38;4973646;28;20196;-77
2023/08/09 07:37:34;;;;;;;2.80;2.00;;;;;;;19.38;98.73;100248.06;4999707;28;20598;-76
2023/08/09 07:40:04;;;;;;;3.90;2.00;;;;;;;19.43;98.51;100246.06;4990172;28;20205;-78
2023/08/09 07:42:29;;;;;;;3.20;1.87;;;;;;;19.52;98.57;100238.69;4981310;28;20712;-77
2023/08/09 07:44:55;;;;;;;3.43;1.87;;;;;;;19.56;98.50;100229.75;4985084;28;20205;-78
2023/08/09 07:47:20;;;;;;;2.90;1.80;;;;;;;19.60;98.59;100229.53;4991144;28;20195;-77
2023/08/09 07:49:45;;;;;;;3.40;2.20;;;;;;;19.61;99.06;100230.34;4991229;28;20187;-77
2023/08/09 07:52:11;;;;;;;3.37;2.13;;;;;;;19.62;99.06;100242.56;4989963;28;20209;-77
2023/08/09 07:54:36;;;;;;;3.00;2.20;;;;;;;19.66;98.68;100246.75;4986348;28;20274;-77
2023/08/09 07:57:05;;;;;;;2.80;2.03;;;;;;;19.67;98.27;100250.22;4985645;28;20206;-77
2023/08/09 07:59:30;;;;;;;2.93;1.80;;;;;;;19.73;97.69;100255.19;4980001;28;20243;-78
2023/08/09 08:01:55;;;;;;;1.93;1.50;;;;;;;19.79;97.38;100263.63;4985207;28;20224;-78
2023/08/09 08:04:21;;;;;;;3.27;2.00;;;;;;;19.78;96.58;100255.81;4981476;28;20255;-78
2023/08/09 08:06:48;;;;;;;4.60;2.20;;;;;;;19.72;96.93;100248.22;4986110;28;20192;-78
2023/08/09 08:09:14;;;;;;;2.27;1.90;;;;;;;19.73;97.37;100260.44;4990871;28;20199;-78
2023/08/09 08:11:40;;;;;;;2.27;2.07;;;;;;;19.76;97.31;100255.88;5005377;28;20697;-77
2023/08/09 08:14:07;;;;;;;2.10;1.50;;;;;;;19.86;97.54;100256.28;4983466;28;20192;-78
2023/08/09 08:16:32;;;;;;;2.30;1.77;;;;;;;19.91;97.40;100258.72;4988258;28;20222;-77
2023/08/09 08:18:57;;;;;;;3.13;2.30;;;;;;;19.83;98.18;100261.69;5006054;28;20713;-77
2023/08/09 08:21:23;;;;;;;3.77;1.93;;;;;;;19.90;97.55;100267.53;4984945;28;20217;-78
2023/08/09 08:23:48;;;;;;;3.00;1.73;;;;;;;19.93;97.64;100270.00;4989648;28;20193;-77
2023/08/09 08:26:15;;;;;;;4.30;1.97;;;;;;;20.00;96.75;100274.06;4988406;28;20227;-80
2023/08/09 08:28:40;;;;;;;2.37;1.80;;;;;;;20.07;96.52;100275.44;4987937;28;20212;-80
2023/08/09 08:31:07;;;;;;;2.57;1.53;;;;;;;20.17;96.19;100282.88;4990784;28;20252;-79
2023/08/09 08:33:33;;;;;;;1.93;1.60;;;;;;;20.23;96.09;100282.56;4992079;28;20235;-81
2023/08/09 08:35:59;;;;;;;4.67;2.33;;;;;;;20.29;95.78;100286.66;4999358;28;20197;-79
2023/08/09 08:38:24;;;;;;;4.83;3.57;;;;;;;20.35;95.83;100287.22;4997534;28;20224;-79
2023/08/09 08:40:49;;;;;;;11.03;7.47;;;;;;;20.44;95.87;100288.53;4993971;28;20300;-81
2023/08/09 08:43:15;;;;;;;7.13;5.17;;;;;;;20.55;95.17;100280.97;4990449;28;20362;-77
2023/08/09 08:45:40;;;;;;;3.20;2.90;;;;;;;20.69;94.48;100287.31;4990869;28;20324;-78
2023/08/09 08:48:12;;;;;;;3.03;2.70;;;;;;;20.78;94.36;100289.47;4999851;28;20232;-76
2023/08/09 08:50:39;;;;;;;3.57;2.40;;;;;;;20.75;94.20;100292.25;4986630;28;20300;-78
2023/08/09 08:53:08;;;;;;;3.07;2.30;;;;;;;20.82;93.35;100298.03;4988188;28;20193;-79
2023/08/09 08:55:34;;;;;;;5.07;2.43;;;;;;;20.79;93.41;100298.22;5001308;28;20271;-79
2023/08/09 08:58:01;;;;;;;2.70;2.20;;;;;;;20.74;93.84;100301.03;4998540;28;20658;-76
2023/08/09 09:00:26;;;;;;;4.27;2.00;;;;;;;20.75;94.11;100308.03;4993617;28;20276;-77
2023/08/09 09:02:52;;;;;;;2.13;1.90;;;;;;;20.73;94.42;100295.88;4985966;28;20213;-77
2023/08/09 09:05:18;;;;;;;2.90;1.90;;;;;;;20.69;94.32;100303.91;4986551;28;20212;-76
2023/08/09 09:07:45;;;;;;;3.27;2.20;;;;;;;20.67;94.92;100303.13;4985248;28;20193;-78
2023/08/09 09:10:15;;;;;;;2.67;1.97;;;;;;;20.67;95.14;100304.94;4985323;28;20337;-78
2023/08/09 09:12:43;;;;;;;5.77;2.20;;;;;;;20.72;94.98;100302.94;4981286;28;20199;-76
2023/08/09 09:15:14;;;;;;;5.50;4.43;;;;;;;20.78;94.96;100312.31;4985291;28;20260;-76
2023/08/09 09:17:42;;;;;;;3.37;3.07;;;;;;;20.86;94.42;100310.97;4984994;28;20385;-79
2023/08/09 09:20:14;;;;;;;3.70;2.70;;;;;;;20.98;94.45;100316.53;4981141;28;20295;-78
2023/08/09 09:22:39;;;;;;;4.77;3.03;;;;;;;21.03;94.07;100317.13;4998226;28;20908;-77
2023/08/09 09:25:11;;;;;;;3.20;2.17;;;;;;;21.08;94.07;100311.63;4981492;28;20946;-78
2023/08/09 09:27:40;;;;;;;3.73;2.33;;;;;;;21.12;93.92;100321.06;4981267;28;20247;-78
2023/08/09 09:30:14;;;;;;;2.73;2.00;;;;;;;21.19;94.00;100314.56;4986773;28;20193;-79
2023/08/09 09:32:54;;;;;;;2.63;1.90;;;;;;;21.31;93.43;100321.78;5008242;28;20236;-77
2023/08/09 09:35:21;;;;;;;2.70;2.27;;;;;;;21.39;92.92;100320.53;4985188;28;20185;-77
2023/08/09 09:37:48;;;;;;;4.00;2.80;;;;;;;21.49;92.54;100321.72;4984919;28;20185;-76
2023/08/09 09:40:32;;;;;;;6.23;4.50;;;;;;;21.61;92.50;100318.47;4980560;28;20200;-76
2023/08/09 09:42:58;;;;;;;6.80;4.93;;;;;;;21.77;92.49;100314.97;4980266;28;20228;-77
2023/08/09 09:45:28;;;;;;;4.50;2.60;;;;;;;22.00;91.34;100316.31;4984678;28;20576;-77
2023/08/09 09:47:56;;;;;;;2.37;2.00;;;;;;;22.20;90.69;100314.34;4983066;28;20194;-78
2023/08/09 09:50:23;;;;;;;5.13;4.17;;;;;;;22.45;89.77;100318.22;4981659;28;20263;-78
2023/08/09 09:52:52;;;;;;;4.33;3.40;;;;;;;22.67;88.56;100318.66;4982874;28;20194;-78
2023/08/09 09:55:25;;;;;;;3.77;3.40;;;;;;;22.88;88.06;100320.94;4984282;28;20213;-77
2023/08/09 09:57:55;;;;;;;3.70;2.50;;;;;;;23.23;86.71;100317.13;5000341;28;20237;-78
2023/08/09 10:00:22;;;;;;;3.57;1.67;;;;;;;23.44;86.09;100314.97;4983340;28;20921;-77
2023/08/09 10:02:52;;;;;;;2.40;2.20;;;;;;;23.57;84.56;100309.75;4984680;28;20201;-76
2023/08/09 10:05:47;;;;;;;4.60;2.27;;;;;;;23.72;84.45;100310.56;4984203;28;20205;-77
2023/08/09 10:08:14;;;;;;;1.80;1.50;;;;;;;24.09;83.40;100304.72;4974666;28;20204;-78
2023/08/09 10:10:45;;;;;;;1.60;1.40;;;;;;;24.32;83.35;100303.22;4978271;28;20280;-77
2023/08/09 10:13:15;;;;;;;1.67;1.57;;;;;;;24.65;82.68;100302.72;4977421;28;20193;-76
2023/08/09 10:15:51;;;;;;;2.03;1.70;;;;;;;24.85;80.72;100305.84;4977573;28;20186;-79
2023/08/09 10:18:24;;;;;;;2.23;1.80;;;;;;;24.55;80.12;100308.75;4982634;28;20192;-76
2023/08/09 10:20:52;;;;;;;3.63;1.60;;;;;;;24.90;79.70;100309.00;4982440;28;20206;-77
2023/08/09 10:23:28;;;;;;;1.93;1.57;;;;;;;25.13;78.92;100309.22;4981453;28;20189;-76
2023/08/09 10:25:55;;;;;;;2.30;1.47;;;;;;;25.27;78.12;100309.09;4979967;28;20586;-77
2023/08/09 10:28:39;;;;;;;1.90;1.50;;;;;;;25.34;77.69;100306.84;4981874;28;20193;-79
2023/08/09 10:31:05;;;;;;;1.50;1.30;;;;;;;25.38;77.24;100307.47;4982813;28;20240;-77
2023/08/09 10:33:31;;;;;;;1.67;1.20;;;;;;;25.45;78.04;100300.81;4982582;28;20190;-78
2023/08/09 10:35:56;;;;;;;1.50;1.40;;;;;;;25.43;77.55;100308.03;4983158;28;20194;-78
2023/08/09 10:38:31;;;;;;;2.43;1.63;;;;;;;25.55;77.79;100306.31;4989749;28;20194;-79
2023/08/09 10:40:57;;;;;;;2.27;1.40;;;;;;;25.68;77.62;100309.78;4987713;28;20630;-77
2023/08/09 10:43:25;;;;;;;3.83;1.87;;;;;;;25.57;78.02;100307.03;4981869;28;20197;-79
2023/08/09 10:45:55;;;;;;;1.77;1.40;;;;;;;25.81;75.85;100309.72;5001177;28;20618;-78
2023/08/09 10:48:26;;;;;;;2.40;1.77;;;;;;;25.79;75.03;100294.88;4984628;28;20193;-78
2023/08/09 10:51:01;;;;;;;3.37;1.50;;;;;;;25.36;75.99;100304.94;4985842;28;20217;-77
2023/08/09 10:53:27;;;;;;;2.70;1.40;;;;;;;25.39;76.42;100304.72;4979950;28;20197;-79
2023/08/09 10:55:55;;;;;;;1.60;1.40;;;;;;;25.38;77.16;100304.81;4979648;28;20193;-77
2023/08/09 10:58:27;;;;;;;3.40;1.30;;;;;;;25.23;77.39;100304.97;4979423;28;20212;-76
2023/08/09 11:00:53;;;;;;;1.90;1.70;;;;;;;25.21;77.04;100298.91;4981590;28;20651;-77
2023/08/09 11:03:20;;;;;;;2.00;1.70;;;;;;;25.23;77.58;100301.47;4982367;28;20193;-77
2023/08/09 11:05:45;;;;;;;2.50;1.73;;;;;;;25.34;77.41;100306.84;4979604;28;20220;-76
2023/08/09 11:08:12;;;;;;;2.80;1.70;;;;;;;25.49;76.75;100302.28;4996114;28;20600;-77
2023/08/09 11:10:40;;;;;;;2.93;1.30;;;;;;;25.67;75.70;100301.91;4981645;28;20637;-77
2023/08/09 11:13:08;;;;;;;2.83;1.50;;;;;;;25.74;75.69;100294.38;4981496;28;20203;-77
2023/08/09 11:15:34;;;;;;;2.53;1.50;;;;;;;25.72;76.36;100294.50;4995644;28;20259;-77
2023/08/09 11:18:00;;;;;;;7.27;4.73;;;;;;;25.69;76.77;100295.56;4978352;28;20186;-78
2023/08/09 11:20:26;;;;;;;5.93;5.03;;;;;;;25.86;75.88;100301.44;4978307;28;21016;-77
2023/08/09 11:22:53;;;;;;;6.47;4.87;;;;;;;25.93;75.79;100297.38;4979952;28;20185;-75